sensor_id;sensor_type;location;lat;lon;timestamp;P1;durP1;ratioP1;P2;durP2;ratioP2
5493;SDS011;2769;49.864;8.656;2023-05-14T00:00:58;11.87;;;8.60;;
5493;SDS011;2769;49.864;8.656;2023-05-14T00:03:27;10.40;;;9.00;;
5493;SDS011;2769;49.864;8.656;2023-05-14T00:05:55;8.90;;;8.00;;
5493;SDS011;2769;49.864;8.656;2023-05-14T00:08:23;10.33;;;8.53;;
5493;SDS011;2769;49.864;8.656;2023-05-14T00:10:51;7.97;;;6.50;;
5493;SDS011;2769;49.864;8.656;2023-05-14T00:13:19;7.60;;;6.80;;
5493;SDS011;2769;49.864;8.656;2023-05-14T00:15:47;6.77;;;6.20;;
5493;SDS011;2769;49.864;8.656;2023-05-14T00:18:15;9.70;;;6.17;;
5493;SDS011;2769;49.864;8.656;2023-05-14T00:20:45;9.50;;;6.10;;
5493;SDS011;2769;49.864;8.656;2023-05-14T00:23:13;6.03;;;5.53;;
5493;SDS011;2769;49.864;8.656;2023-05-14T00:25:41;6.20;;;5.60;;
5493;SDS011;2769;49.864;8.656;2023-05-14T00:28:09;6.83;;;6.00;;
5493;SDS011;2769;49.864;8.656;2023-05-14T00:30:37;6.27;;;5.70;;
5493;SDS011;2769;49.864;8.656;2023-05-14T00:33:06;5.90;;;5.50;;
5493;SDS011;2769;49.864;8.656;2023-05-14T00:35:34;5.23;;;4.73;;
5493;SDS011;2769;49.864;8.656;2023-05-14T00:38:03;6.37;;;5.77;;
5493;SDS011;2769;49.864;8.656;2023-05-14T00:40:31;6.70;;;5.37;;
5493;SDS011;2769;49.864;8.656;2023-05-14T00:42:59;6.67;;;5.57;;
5493;SDS011;2769;49.864;8.656;2023-05-14T00:45:27;6.20;;;5.70;;
5493;SDS011;2769;49.864;8.656;2023-05-14T00:47:55;6.03;;;5.57;;
5493;SDS011;2769;49.864;8.656;2023-05-14T00:50:23;6.10;;;5.67;;
5493;SDS011;2769;49.864;8.656;2023-05-14T00:52:52;5.37;;;4.97;;
5493;SDS011;2769;49.864;8.656;2023-05-14T00:55:21;6.17;;;5.57;;
5493;SDS011;2769;49.864;8.656;2023-05-14T00:57:52;5.90;;;5.30;;
5493;SDS011;2769;49.864;8.656;2023-05-14T01:00:21;6.10;;;5.60;;
5493;SDS011;2769;49.864;8.656;2023-05-14T01:02:49;6.37;;;5.87;;
5493;SDS011;2769;49.864;8.656;2023-05-14T01:05:17;5.60;;;5.00;;
5493;SDS011;2769;49.864;8.656;2023-05-14T01:07:47;6.60;;;6.00;;
5493;SDS011;2769;49.864;8.656;2023-05-14T01:10:20;8.47;;;4.87;;
5493;SDS011;2769;49.864;8.656;2023-05-14T01:12:56;5.83;;;5.33;;
5493;SDS011;2769;49.864;8.656;2023-05-14T01:15:29;6.43;;;5.73;;
5493;SDS011;2769;49.864;8.656;2023-05-14T01:17:58;6.30;;;5.80;;
5493;SDS011;2769;49.864;8.656;2023-05-14T01:20:26;6.03;;;5.50;;
5493;SDS011;2769;49.864;8.656;2023-05-14T01:22:57;6.40;;;5.80;;
5493;SDS011;2769;49.864;8.656;2023-05-14T01:25:25;6.00;;;5.60;;
5493;SDS011;2769;49.864;8.656;2023-05-14T01:27:55;6.93;;;5.93;;
5493;SDS011;2769;49.864;8.656;2023-05-14T01:30:28;5.90;;;5.30;;
5493;SDS011;2769;49.864;8.656;2023-05-14T01:32:59;9.93;;;5.73;;
5493;SDS011;2769;49.864;8.656;2023-05-14T01:35:29;9.20;;;5.90;;
5493;SDS011;2769;49.864;8.656;2023-05-14T01:37:59;6.13;;;5.53;;
5493;SDS011;2769;49.864;8.656;2023-05-14T01:40:28;6.53;;;5.30;;
5493;SDS011;2769;49.864;8.656;2023-05-14T01:42:56;6.53;;;5.87;;
5493;SDS011;2769;49.864;8.656;2023-05-14T01:45:24;5.70;;;5.20;;
5493;SDS011;2769;49.864;8.656;2023-05-14T01:47:52;6.23;;;5.50;;
5493;SDS011;2769;49.864;8.656;2023-05-14T01:50:20;5.87;;;5.37;;
5493;SDS011;2769;49.864;8.656;2023-05-14T01:52:49;6.60;;;6.00;;
5493;SDS011;2769;49.864;8.656;2023-05-14T01:55:21;7.13;;;6.43;;
5493;SDS011;2769;49.864;8.656;2023-05-14T01:57:49;6.67;;;5.97;;
5493;SDS011;2769;49.864;8.656;2023-05-14T02:00:17;6.77;;;6.00;;
5493;SDS011;2769;49.864;8.656;2023-05-14T02:02:45;7.27;;;6.00;;
5493;SDS011;2769;49.864;8.656;2023-05-14T02:05:14;9.53;;;6.20;;
5493;SDS011;2769;49.864;8.656;2023-05-14T02:07:42;7.13;;;6.43;;
5493;SDS011;2769;49.864;8.656;2023-05-14T02:10:10;6.97;;;6.47;;
5493;SDS011;2769;49.864;8.656;2023-05-14T02:12:39;5.97;;;5.47;;
5493;SDS011;2769;49.864;8.656;2023-05-14T02:15:07;6.40;;;5.37;;
5493;SDS011;2769;49.864;8.656;2023-05-14T02:17:39;6.23;;;5.67;;
5493;SDS011;2769;49.864;8.656;2023-05-14T02:20:09;8.60;;;6.37;;
5493;SDS011;2769;49.864;8.656;2023-05-14T02:22:38;6.50;;;5.93;;
5493;SDS011;2769;49.864;8.656;2023-05-14T02:25:08;7.93;;;7.23;;
5493;SDS011;2769;49.864;8.656;2023-05-14T02:27:36;7.40;;;6.70;;
5493;SDS011;2769;49.864;8.656;2023-05-14T02:30:06;7.00;;;6.40;;
5493;SDS011;2769;49.864;8.656;2023-05-14T02:32:35;7.80;;;7.10;;
5493;SDS011;2769;49.864;8.656;2023-05-14T02:35:04;7.30;;;6.70;;
5493;SDS011;2769;49.864;8.656;2023-05-14T02:37:32;7.50;;;6.80;;
5493;SDS011;2769;49.864;8.656;2023-05-14T02:40:01;7.80;;;7.00;;
5493;SDS011;2769;49.864;8.656;2023-05-14T02:42:30;7.27;;;6.33;;
5493;SDS011;2769;49.864;8.656;2023-05-14T02:44:58;11.13;;;7.17;;
5493;SDS011;2769;49.864;8.656;2023-05-14T02:47:27;7.60;;;6.90;;
5493;SDS011;2769;49.864;8.656;2023-05-14T02:49:55;7.77;;;6.97;;
5493;SDS011;2769;49.864;8.656;2023-05-14T02:52:23;7.33;;;6.70;;
5493;SDS011;2769;49.864;8.656;2023-05-14T02:54:50;7.60;;;6.90;;
5493;SDS011;2769;49.864;8.656;2023-05-14T02:57:18;8.83;;;7.00;;
5493;SDS011;2769;49.864;8.656;2023-05-14T02:59:46;7.50;;;6.70;;
5493;SDS011;2769;49.864;8.656;2023-05-14T03:02:14;7.67;;;6.97;;
5493;SDS011;2769;49.864;8.656;2023-05-14T03:04:44;8.27;;;7.47;;
5493;SDS011;2769;49.864;8.656;2023-05-14T03:07:12;7.53;;;6.83;;
5493;SDS011;2769;49.864;8.656;2023-05-14T03:09:40;7.50;;;6.80;;
5493;SDS011;2769;49.864;8.656;2023-05-14T03:12:08;7.87;;;7.17;;
5493;SDS011;2769;49.864;8.656;2023-05-14T03:14:36;8.53;;;7.70;;
5493;SDS011;2769;49.864;8.656;2023-05-14T03:17:04;13.83;;;8.20;;
5493;SDS011;2769;49.864;8.656;2023-05-14T03:19:32;9.40;;;8.60;;
5493;SDS011;2769;49.864;8.656;2023-05-14T03:22:01;9.50;;;8.50;;
5493;SDS011;2769;49.864;8.656;2023-05-14T03:24:30;9.37;;;8.37;;
5493;SDS011;2769;49.864;8.656;2023-05-14T03:26:58;9.70;;;8.07;;
5493;SDS011;2769;49.864;8.656;2023-05-14T03:29:25;11.40;;;9.10;;
5493;SDS011;2769;49.864;8.656;2023-05-14T03:31:53;9.77;;;8.80;;
5493;SDS011;2769;49.864;8.656;2023-05-14T03:34:21;13.50;;;8.70;;
5493;SDS011;2769;49.864;8.656;2023-05-14T03:36:49;9.20;;;8.40;;
5493;SDS011;2769;49.864;8.656;2023-05-14T03:39:19;9.20;;;8.33;;
5493;SDS011;2769;49.864;8.656;2023-05-14T03:41:47;17.13;;;9.50;;
5493;SDS011;2769;49.864;8.656;2023-05-14T03:44:15;10.97;;;9.87;;
5493;SDS011;2769;49.864;8.656;2023-05-14T03:46:43;10.00;;;9.00;;
5493;SDS011;2769;49.864;8.656;2023-05-14T03:49:11;11.63;;;10.07;;
5493;SDS011;2769;49.864;8.656;2023-05-14T03:51:38;10.20;;;9.20;;
5493;SDS011;2769;49.864;8.656;2023-05-14T03:54:06;10.00;;;9.00;;
5493;SDS011;2769;49.864;8.656;2023-05-14T03:56:36;11.20;;;10.00;;
5493;SDS011;2769;49.864;8.656;2023-05-14T03:59:03;12.27;;;10.10;;
5493;SDS011;2769;49.864;8.656;2023-05-14T04:01:31;13.47;;;9.40;;
5493;SDS011;2769;49.864;8.656;2023-05-14T04:03:59;19.23;;;10.90;;
5493;SDS011;2769;49.864;8.656;2023-05-14T04:06:27;11.23;;;10.13;;
5493;SDS011;2769;49.864;8.656;2023-05-14T04:08:58;10.20;;;9.23;;
5493;SDS011;2769;49.864;8.656;2023-05-14T04:11:26;10.57;;;9.57;;
5493;SDS011;2769;49.864;8.656;2023-05-14T04:13:55;11.67;;;8.80;;
5493;SDS011;2769;49.864;8.656;2023-05-14T04:16:23;13.43;;;9.13;;
5493;SDS011;2769;49.864;8.656;2023-05-14T04:18:51;13.47;;;9.30;;
5493;SDS011;2769;49.864;8.656;2023-05-14T04:21:19;10.40;;;9.30;;
5493;SDS011;2769;49.864;8.656;2023-05-14T04:23:47;12.20;;;9.00;;
5493;SDS011;2769;49.864;8.656;2023-05-14T04:26:16;10.20;;;9.20;;
5493;SDS011;2769;49.864;8.656;2023-05-14T04:28:43;11.87;;;9.00;;
5493;SDS011;2769;49.864;8.656;2023-05-14T04:31:14;10.60;;;9.07;;
5493;SDS011;2769;49.864;8.656;2023-05-14T04:33:42;9.60;;;8.70;;
5493;SDS011;2769;49.864;8.656;2023-05-14T04:36:10;9.07;;;8.10;;
5493;SDS011;2769;49.864;8.656;2023-05-14T04:38:37;12.00;;;9.10;;
5493;SDS011;2769;49.864;8.656;2023-05-14T04:41:06;9.70;;;8.70;;
5493;SDS011;2769;49.864;8.656;2023-05-14T04:43:34;9.10;;;8.20;;
5493;SDS011;2769;49.864;8.656;2023-05-14T04:46:02;9.77;;;8.87;;
5493;SDS011;2769;49.864;8.656;2023-05-14T04:48:31;10.10;;;9.10;;
5493;SDS011;2769;49.864;8.656;2023-05-14T04:50:59;16.00;;;9.90;;
5493;SDS011;2769;49.864;8.656;2023-05-14T04:53:29;10.03;;;9.03;;
5493;SDS011;2769;49.864;8.656;2023-05-14T04:55:57;10.00;;;8.73;;
5493;SDS011;2769;49.864;8.656;2023-05-14T04:58:25;12.33;;;8.40;;
5493;SDS011;2769;49.864;8.656;2023-05-14T05:00:54;9.67;;;8.67;;
5493;SDS011;2769;49.864;8.656;2023-05-14T05:03:22;10.83;;;9.73;;
5493;SDS011;2769;49.864;8.656;2023-05-14T05:05:52;9.63;;;8.67;;
5493;SDS011;2769;49.864;8.656;2023-05-14T05:08:19;10.20;;;9.30;;
5493;SDS011;2769;49.864;8.656;2023-05-14T05:10:47;10.20;;;9.10;;
5493;SDS011;2769;49.864;8.656;2023-05-14T05:13:15;10.50;;;8.97;;
5493;SDS011;2769;49.864;8.656;2023-05-14T05:15:43;10.40;;;9.30;;
5493;SDS011;2769;49.864;8.656;2023-05-14T05:18:11;9.80;;;8.43;;
5493;SDS011;2769;49.864;8.656;2023-05-14T05:20:39;8.50;;;7.70;;
5493;SDS011;2769;49.864;8.656;2023-05-14T05:23:08;10.40;;;8.77;;
5493;SDS011;2769;49.864;8.656;2023-05-14T05:25:36;10.73;;;8.50;;
5493;SDS011;2769;49.864;8.656;2023-05-14T05:28:04;9.57;;;8.60;;
5493;SDS011;2769;49.864;8.656;2023-05-14T05:30:32;9.67;;;8.77;;
5493;SDS011;2769;49.864;8.656;2023-05-14T05:33:00;13.40;;;8.87;;
5493;SDS011;2769;49.864;8.656;2023-05-14T05:35:28;9.07;;;8.27;;
5493;SDS011;2769;49.864;8.656;2023-05-14T05:37:56;9.10;;;8.17;;
5493;SDS011;2769;49.864;8.656;2023-05-14T05:40:28;10.03;;;8.10;;
5493;SDS011;2769;49.864;8.656;2023-05-14T05:42:56;10.27;;;8.70;;
5493;SDS011;2769;49.864;8.656;2023-05-14T05:45:24;8.63;;;7.67;;
5493;SDS011;2769;49.864;8.656;2023-05-14T05:47:52;8.80;;;8.00;;
5493;SDS011;2769;49.864;8.656;2023-05-14T05:50:20;8.63;;;7.90;;
5493;SDS011;2769;49.864;8.656;2023-05-14T05:52:48;10.83;;;8.37;;
5493;SDS011;2769;49.864;8.656;2023-05-14T05:55:16;11.90;;;7.33;;
5493;SDS011;2769;49.864;8.656;2023-05-14T05:57:45;9.63;;;7.50;;
5493;SDS011;2769;49.864;8.656;2023-05-14T06:00:13;8.30;;;7.50;;
5493;SDS011;2769;49.864;8.656;2023-05-14T06:02:42;8.63;;;7.83;;
5493;SDS011;2769;49.864;8.656;2023-05-14T06:05:11;6.80;;;6.27;;
5493;SDS011;2769;49.864;8.656;2023-05-14T06:07:39;8.70;;;6.67;;
5493;SDS011;2769;49.864;8.656;2023-05-14T06:10:07;8.03;;;7.17;;
5493;SDS011;2769;49.864;8.656;2023-05-14T06:12:35;7.67;;;7.00;;
5493;SDS011;2769;49.864;8.656;2023-05-14T06:15:05;7.00;;;6.37;;
5493;SDS011;2769;49.864;8.656;2023-05-14T06:17:33;7.40;;;6.80;;
5493;SDS011;2769;49.864;8.656;2023-05-14T06:20:01;5.97;;;5.53;;
5493;SDS011;2769;49.864;8.656;2023-05-14T06:22:30;6.83;;;6.13;;
5493;SDS011;2769;49.864;8.656;2023-05-14T06:24:58;6.70;;;6.10;;
5493;SDS011;2769;49.864;8.656;2023-05-14T06:27:26;6.50;;;5.90;;
5493;SDS011;2769;49.864;8.656;2023-05-14T06:29:54;5.30;;;4.90;;
5493;SDS011;2769;49.864;8.656;2023-05-14T06:32:23;5.87;;;5.33;;
5493;SDS011;2769;49.864;8.656;2023-05-14T06:34:54;6.80;;;5.30;;
5493;SDS011;2769;49.864;8.656;2023-05-14T06:37:22;7.80;;;5.73;;
5493;SDS011;2769;49.864;8.656;2023-05-14T06:39:50;5.20;;;4.80;;
5493;SDS011;2769;49.864;8.656;2023-05-14T06:42:18;5.53;;;4.53;;
5493;SDS011;2769;49.864;8.656;2023-05-14T06:44:46;5.30;;;4.90;;
5493;SDS011;2769;49.864;8.656;2023-05-14T06:47:14;5.00;;;4.70;;
5493;SDS011;2769;49.864;8.656;2023-05-14T06:49:43;4.77;;;4.37;;
5493;SDS011;2769;49.864;8.656;2023-05-14T06:52:11;5.37;;;4.70;;
5493;SDS011;2769;49.864;8.656;2023-05-14T06:54:39;4.60;;;4.20;;
5493;SDS011;2769;49.864;8.656;2023-05-14T06:57:06;4.07;;;3.83;;
5493;SDS011;2769;49.864;8.656;2023-05-14T06:59:34;7.20;;;4.03;;
5493;SDS011;2769;49.864;8.656;2023-05-14T07:02:02;4.23;;;3.83;;
5493;SDS011;2769;49.864;8.656;2023-05-14T07:04:30;5.20;;;3.90;;
5493;SDS011;2769;49.864;8.656;2023-05-14T07:07:00;4.13;;;3.60;;
5493;SDS011;2769;49.864;8.656;2023-05-14T07:09:28;3.97;;;3.67;;
5493;SDS011;2769;49.864;8.656;2023-05-14T07:11:56;7.67;;;4.40;;
5493;SDS011;2769;49.864;8.656;2023-05-14T07:14:23;6.63;;;4.50;;
5493;SDS011;2769;49.864;8.656;2023-05-14T07:16:52;5.23;;;4.33;;
5493;SDS011;2769;49.864;8.656;2023-05-14T07:19:20;4.07;;;3.87;;
5493;SDS011;2769;49.864;8.656;2023-05-14T07:21:48;4.17;;;3.80;;
5493;SDS011;2769;49.864;8.656;2023-05-14T07:24:18;4.57;;;4.00;;
5493;SDS011;2769;49.864;8.656;2023-05-14T07:26:45;4.30;;;4.00;;
5493;SDS011;2769;49.864;8.656;2023-05-14T07:29:13;6.80;;;3.50;;
5493;SDS011;2769;49.864;8.656;2023-05-14T07:31:41;4.27;;;3.90;;
5493;SDS011;2769;49.864;8.656;2023-05-14T07:34:09;3.93;;;3.73;;
5493;SDS011;2769;49.864;8.656;2023-05-14T07:36:38;5.00;;;4.60;;
5493;SDS011;2769;49.864;8.656;2023-05-14T07:39:06;3.83;;;3.53;;
5493;SDS011;2769;49.864;8.656;2023-05-14T07:41:35;4.17;;;3.87;;
5493;SDS011;2769;49.864;8.656;2023-05-14T07:44:03;3.77;;;3.47;;
5493;SDS011;2769;49.864;8.656;2023-05-14T07:46:31;4.40;;;3.43;;
5493;SDS011;2769;49.864;8.656;2023-05-14T07:48:59;3.83;;;3.50;;
5493;SDS011;2769;49.864;8.656;2023-05-14T07:51:27;6.40;;;3.47;;
5493;SDS011;2769;49.864;8.656;2023-05-14T07:53:55;7.20;;;3.90;;
5493;SDS011;2769;49.864;8.656;2023-05-14T07:56:23;4.70;;;3.80;;
5493;SDS011;2769;49.864;8.656;2023-05-14T07:58:55;6.63;;;3.17;;
5493;SDS011;2769;49.864;8.656;2023-05-14T08:01:23;4.57;;;4.10;;
5493;SDS011;2769;49.864;8.656;2023-05-14T08:03:51;3.60;;;3.40;;
5493;SDS011;2769;49.864;8.656;2023-05-14T08:06:19;3.90;;;3.60;;
5493;SDS011;2769;49.864;8.656;2023-05-14T08:08:49;5.10;;;3.90;;
5493;SDS011;2769;49.864;8.656;2023-05-14T08:11:16;3.60;;;3.40;;
5493;SDS011;2769;49.864;8.656;2023-05-14T08:13:45;4.50;;;4.00;;
5493;SDS011;2769;49.864;8.656;2023-05-14T08:16:14;4.00;;;3.70;;
5493;SDS011;2769;49.864;8.656;2023-05-14T08:18:42;4.00;;;3.37;;
5493;SDS011;2769;49.864;8.656;2023-05-14T08:21:10;4.73;;;3.00;;
5493;SDS011;2769;49.864;8.656;2023-05-14T08:23:38;3.83;;;3.53;;
5493;SDS011;2769;49.864;8.656;2023-05-14T08:26:06;3.17;;;2.97;;
5493;SDS011;2769;49.864;8.656;2023-05-14T08:28:34;3.90;;;3.60;;
5493;SDS011;2769;49.864;8.656;2023-05-14T08:31:02;4.47;;;4.17;;
5493;SDS011;2769;49.864;8.656;2023-05-14T08:33:35;11.80;;;3.80;;
5493;SDS011;2769;49.864;8.656;2023-05-14T08:36:04;3.83;;;3.43;;
5493;SDS011;2769;49.864;8.656;2023-05-14T08:38:32;3.67;;;3.43;;
5493;SDS011;2769;49.864;8.656;2023-05-14T08:41:00;3.77;;;3.50;;
5493;SDS011;2769;49.864;8.656;2023-05-14T08:43:29;4.13;;;3.93;;
5493;SDS011;2769;49.864;8.656;2023-05-14T08:46:04;5.70;;;3.20;;
5493;SDS011;2769;49.864;8.656;2023-05-14T08:48:32;4.07;;;3.77;;
5493;SDS011;2769;49.864;8.656;2023-05-14T08:51:02;5.10;;;3.80;;
5493;SDS011;2769;49.864;8.656;2023-05-14T08:53:31;3.83;;;3.40;;
5493;SDS011;2769;49.864;8.656;2023-05-14T08:55:59;3.43;;;3.23;;
5493;SDS011;2769;49.864;8.656;2023-05-14T08:58:28;3.70;;;3.50;;
5493;SDS011;2769;49.864;8.656;2023-05-14T09:00:56;7.00;;;3.90;;
5493;SDS011;2769;49.864;8.656;2023-05-14T09:03:23;4.20;;;3.90;;
5493;SDS011;2769;49.864;8.656;2023-05-14T09:05:51;4.30;;;4.00;;
5493;SDS011;2769;49.864;8.656;2023-05-14T09:08:21;4.03;;;3.70;;
5493;SDS011;2769;49.864;8.656;2023-05-14T09:10:49;4.40;;;4.10;;
5493;SDS011;2769;49.864;8.656;2023-05-14T09:13:17;3.80;;;3.60;;
5493;SDS011;2769;49.864;8.656;2023-05-14T09:15:45;4.60;;;3.80;;
5493;SDS011;2769;49.864;8.656;2023-05-14T09:18:15;5.03;;;3.40;;
5493;SDS011;2769;49.864;8.656;2023-05-14T09:20:43;4.10;;;3.90;;
5493;SDS011;2769;49.864;8.656;2023-05-14T09:23:13;4.03;;;3.83;;
5493;SDS011;2769;49.864;8.656;2023-05-14T09:25:42;3.50;;;3.30;;
5493;SDS011;2769;49.864;8.656;2023-05-14T09:28:10;5.10;;;4.23;;
5493;SDS011;2769;49.864;8.656;2023-05-14T09:30:38;3.90;;;3.57;;
5493;SDS011;2769;49.864;8.656;2023-05-14T09:33:06;4.07;;;3.83;;
5493;SDS011;2769;49.864;8.656;2023-05-14T09:35:36;4.47;;;4.07;;
5493;SDS011;2769;49.864;8.656;2023-05-14T09:38:05;4.00;;;3.70;;
5493;SDS011;2769;49.864;8.656;2023-05-14T09:40:34;4.10;;;3.53;;
5493;SDS011;2769;49.864;8.656;2023-05-14T09:43:04;6.83;;;4.40;;
5493;SDS011;2769;49.864;8.656;2023-05-14T09:45:32;3.93;;;3.73;;
5493;SDS011;2769;49.864;8.656;2023-05-14T09:48:01;4.50;;;3.73;;
5493;SDS011;2769;49.864;8.656;2023-05-14T09:50:29;5.50;;;3.50;;
5493;SDS011;2769;49.864;8.656;2023-05-14T09:52:57;3.83;;;3.53;;
5493;SDS011;2769;49.864;8.656;2023-05-14T09:55:26;6.23;;;3.77;;
5493;SDS011;2769;49.864;8.656;2023-05-14T09:57:54;3.60;;;3.30;;
5493;SDS011;2769;49.864;8.656;2023-05-14T10:00:23;9.30;;;3.63;;
5493;SDS011;2769;49.864;8.656;2023-05-14T10:02:52;4.13;;;3.27;;
5493;SDS011;2769;49.864;8.656;2023-05-14T10:05:20;3.30;;;3.10;;
5493;SDS011;2769;49.864;8.656;2023-05-14T10:07:50;3.47;;;3.27;;
5493;SDS011;2769;49.864;8.656;2023-05-14T10:10:20;3.70;;;3.40;;
5493;SDS011;2769;49.864;8.656;2023-05-14T10:12:52;3.57;;;3.27;;
5493;SDS011;2769;49.864;8.656;2023-05-14T10:15:27;3.50;;;3.30;;
5493;SDS011;2769;49.864;8.656;2023-05-14T10:17:57;3.20;;;2.90;;
5493;SDS011;2769;49.864;8.656;2023-05-14T10:20:27;4.23;;;3.30;;
5493;SDS011;2769;49.864;8.656;2023-05-14T10:22:56;3.50;;;3.30;;
5493;SDS011;2769;49.864;8.656;2023-05-14T10:25:24;3.47;;;3.17;;
5493;SDS011;2769;49.864;8.656;2023-05-14T10:27:55;3.30;;;3.10;;
5493;SDS011;2769;49.864;8.656;2023-05-14T10:30:27;3.53;;;3.33;;
5493;SDS011;2769;49.864;8.656;2023-05-14T10:33:06;3.27;;;2.40;;
5493;SDS011;2769;49.864;8.656;2023-05-14T10:35:51;3.47;;;3.27;;
5493;SDS011;2769;49.864;8.656;2023-05-14T10:38:24;3.67;;;3.33;;
5493;SDS011;2769;49.864;8.656;2023-05-14T10:40:57;4.03;;;3.63;;
5493;SDS011;2769;49.864;8.656;2023-05-14T10:43:26;3.43;;;3.23;;
5493;SDS011;2769;49.864;8.656;2023-05-14T10:45:58;3.37;;;3.17;;
5493;SDS011;2769;49.864;8.656;2023-05-14T10:48:26;9.63;;;5.67;;
5493;SDS011;2769;49.864;8.656;2023-05-14T10:50:55;5.60;;;5.10;;
5493;SDS011;2769;49.864;8.656;2023-05-14T10:53:29;5.90;;;5.40;;
5493;SDS011;2769;49.864;8.656;2023-05-14T10:56:00;4.07;;;3.80;;
5493;SDS011;2769;49.864;8.656;2023-05-14T10:58:30;3.97;;;3.33;;
5493;SDS011;2769;49.864;8.656;2023-05-14T11:01:00;3.67;;;3.47;;
5493;SDS011;2769;49.864;8.656;2023-05-14T11:03:28;3.57;;;3.33;;
5493;SDS011;2769;49.864;8.656;2023-05-14T11:05:58;3.70;;;3.40;;
5493;SDS011;2769;49.864;8.656;2023-05-14T11:08:26;4.07;;;3.70;;
5493;SDS011;2769;49.864;8.656;2023-05-14T11:10:55;3.90;;;3.60;;
5493;SDS011;2769;49.864;8.656;2023-05-14T11:13:23;4.03;;;3.73;;
5493;SDS011;2769;49.864;8.656;2023-05-14T11:15:52;8.83;;;4.03;;
5493;SDS011;2769;49.864;8.656;2023-05-14T11:18:28;5.07;;;4.17;;
5493;SDS011;2769;49.864;8.656;2023-05-14T11:20:58;3.23;;;3.03;;
5493;SDS011;2769;49.864;8.656;2023-05-14T11:23:26;3.03;;;2.83;;
5493;SDS011;2769;49.864;8.656;2023-05-14T11:25:55;5.13;;;2.90;;
5493;SDS011;2769;49.864;8.656;2023-05-14T11:28:24;2.90;;;2.80;;
5493;SDS011;2769;49.864;8.656;2023-05-14T11:30:52;3.10;;;2.90;;
5493;SDS011;2769;49.864;8.656;2023-05-14T11:33:20;4.20;;;3.80;;
5493;SDS011;2769;49.864;8.656;2023-05-14T11:35:50;3.33;;;3.23;;
5493;SDS011;2769;49.864;8.656;2023-05-14T11:38:18;3.20;;;3.10;;
5493;SDS011;2769;49.864;8.656;2023-05-14T11:40:50;9.13;;;3.13;;
5493;SDS011;2769;49.864;8.656;2023-05-14T11:43:19;3.27;;;3.07;;
5493;SDS011;2769;49.864;8.656;2023-05-14T11:45:49;4.60;;;3.00;;
5493;SDS011;2769;49.864;8.656;2023-05-14T11:48:18;3.43;;;3.23;;
5493;SDS011;2769;49.864;8.656;2023-05-14T11:50:46;2.80;;;2.60;;
5493;SDS011;2769;49.864;8.656;2023-05-14T11:53:17;3.33;;;3.00;;
5493;SDS011;2769;49.864;8.656;2023-05-14T11:55:46;2.93;;;2.73;;
5493;SDS011;2769;49.864;8.656;2023-05-14T11:58:14;2.83;;;2.70;;
5493;SDS011;2769;49.864;8.656;2023-05-14T12:00:44;3.37;;;2.80;;
5493;SDS011;2769;49.864;8.656;2023-05-14T12:03:12;2.30;;;2.20;;
5493;SDS011;2769;49.864;8.656;2023-05-14T12:05:53;2.67;;;2.57;;
5493;SDS011;2769;49.864;8.656;2023-05-14T12:08:24;2.50;;;2.30;;
5493;SDS011;2769;49.864;8.656;2023-05-14T12:10:53;2.73;;;2.57;;
5493;SDS011;2769;49.864;8.656;2023-05-14T12:13:23;2.60;;;2.50;;
5493;SDS011;2769;49.864;8.656;2023-05-14T12:15:53;2.80;;;2.60;;
5493;SDS011;2769;49.864;8.656;2023-05-14T12:18:23;2.60;;;2.40;;
5493;SDS011;2769;49.864;8.656;2023-05-14T12:20:51;2.70;;;2.60;;
5493;SDS011;2769;49.864;8.656;2023-05-14T12:23:25;3.00;;;2.63;;
5493;SDS011;2769;49.864;8.656;2023-05-14T12:25:53;2.80;;;2.60;;
5493;SDS011;2769;49.864;8.656;2023-05-14T12:28:21;2.90;;;2.70;;
5493;SDS011;2769;49.864;8.656;2023-05-14T12:30:54;2.50;;;2.30;;
5493;SDS011;2769;49.864;8.656;2023-05-14T12:33:23;2.80;;;2.70;;
5493;SDS011;2769;49.864;8.656;2023-05-14T12:35:52;2.70;;;2.60;;
5493;SDS011;2769;49.864;8.656;2023-05-14T12:38:27;2.57;;;2.37;;
5493;SDS011;2769;49.864;8.656;2023-05-14T12:40:55;2.93;;;2.83;;
5493;SDS011;2769;49.864;8.656;2023-05-14T12:43:23;2.87;;;2.67;;
5493;SDS011;2769;49.864;8.656;2023-05-14T12:45:55;4.60;;;2.33;;
5493;SDS011;2769;49.864;8.656;2023-05-14T12:48:23;7.43;;;2.50;;
5493;SDS011;2769;49.864;8.656;2023-05-14T12:50:51;2.80;;;2.70;;
5493;SDS011;2769;49.864;8.656;2023-05-14T12:53:19;2.80;;;2.30;;
5493;SDS011;2769;49.864;8.656;2023-05-14T12:55:48;2.77;;;2.50;;
5493;SDS011;2769;49.864;8.656;2023-05-14T12:58:16;3.00;;;2.67;;
5493;SDS011;2769;49.864;8.656;2023-05-14T13:00:44;2.53;;;2.43;;
5493;SDS011;2769;49.864;8.656;2023-05-14T13:03:12;2.70;;;2.60;;
5493;SDS011;2769;49.864;8.656;2023-05-14T13:05:40;2.67;;;2.57;;
5493;SDS011;2769;49.864;8.656;2023-05-14T13:08:08;2.60;;;2.50;;
5493;SDS011;2769;49.864;8.656;2023-05-14T13:10:36;2.97;;;2.70;;
5493;SDS011;2769;49.864;8.656;2023-05-14T13:13:05;2.53;;;2.43;;
5493;SDS011;2769;49.864;8.656;2023-05-14T13:15:34;3.13;;;3.03;;
5493;SDS011;2769;49.864;8.656;2023-05-14T13:18:02;2.30;;;2.20;;
5493;SDS011;2769;49.864;8.656;2023-05-14T13:20:33;5.13;;;2.67;;
5493;SDS011;2769;49.864;8.656;2023-05-14T13:23:01;3.00;;;2.60;;
5493;SDS011;2769;49.864;8.656;2023-05-14T13:25:29;2.40;;;2.20;;
5493;SDS011;2769;49.864;8.656;2023-05-14T13:27:57;2.20;;;2.20;;
5493;SDS011;2769;49.864;8.656;2023-05-14T13:30:27;2.30;;;2.20;;
5493;SDS011;2769;49.864;8.656;2023-05-14T13:32:55;3.13;;;2.03;;
5493;SDS011;2769;49.864;8.656;2023-05-14T13:35:23;2.40;;;2.00;;
5493;SDS011;2769;49.864;8.656;2023-05-14T13:37:52;2.20;;;2.10;;
5493;SDS011;2769;49.864;8.656;2023-05-14T13:40:20;2.20;;;2.10;;
5493;SDS011;2769;49.864;8.656;2023-05-14T13:42:48;2.43;;;1.70;;
5493;SDS011;2769;49.864;8.656;2023-05-14T13:45:37;1.87;;;1.87;;
5493;SDS011;2769;49.864;8.656;2023-05-14T13:48:27;1.70;;;1.70;;
5493;SDS011;2769;49.864;8.656;2023-05-14T13:51:16;1.70;;;1.70;;
5493;SDS011;2769;49.864;8.656;2023-05-14T13:54:05;1.70;;;1.60;;
5493;SDS011;2769;49.864;8.656;2023-05-14T13:56:53;1.53;;;1.53;;
5493;SDS011;2769;49.864;8.656;2023-05-14T13:59:42;2.30;;;1.90;;
5493;SDS011;2769;49.864;8.656;2023-05-14T14:02:31;4.37;;;1.80;;
5493;SDS011;2769;49.864;8.656;2023-05-14T14:05:20;2.20;;;2.00;;
5493;SDS011;2769;49.864;8.656;2023-05-14T14:08:12;2.40;;;1.80;;
5493;SDS011;2769;49.864;8.656;2023-05-14T14:11:10;2.00;;;1.93;;
5493;SDS011;2769;49.864;8.656;2023-05-14T14:13:59;2.40;;;2.30;;
5493;SDS011;2769;49.864;8.656;2023-05-14T14:16:47;2.33;;;2.23;;
5493;SDS011;2769;49.864;8.656;2023-05-14T14:19:37;2.70;;;2.60;;
5493;SDS011;2769;49.864;8.656;2023-05-14T14:22:25;2.40;;;2.30;;
5493;SDS011;2769;49.864;8.656;2023-05-14T14:25:15;2.30;;;2.20;;
5493;SDS011;2769;49.864;8.656;2023-05-14T14:28:03;2.93;;;2.63;;
5493;SDS011;2769;49.864;8.656;2023-05-14T14:30:52;5.63;;;2.83;;
5493;SDS011;2769;49.864;8.656;2023-05-14T14:33:40;2.40;;;2.30;;
5493;SDS011;2769;49.864;8.656;2023-05-14T14:36:30;2.70;;;2.50;;
5493;SDS011;2769;49.864;8.656;2023-05-14T14:39:18;3.50;;;2.63;;
5493;SDS011;2769;49.864;8.656;2023-05-14T14:42:06;2.63;;;2.53;;
5493;SDS011;2769;49.864;8.656;2023-05-14T14:44:55;2.60;;;2.50;;
5493;SDS011;2769;49.864;8.656;2023-05-14T14:47:44;3.30;;;2.70;;
5493;SDS011;2769;49.864;8.656;2023-05-14T14:50:34;2.60;;;2.40;;
5493;SDS011;2769;49.864;8.656;2023-05-14T14:53:24;2.80;;;2.40;;
5493;SDS011;2769;49.864;8.656;2023-05-14T14:56:12;2.43;;;2.27;;
5493;SDS011;2769;49.864;8.656;2023-05-14T14:59:00;2.40;;;2.30;;
5493;SDS011;2769;49.864;8.656;2023-05-14T15:01:49;2.90;;;2.70;;
5493;SDS011;2769;49.864;8.656;2023-05-14T15:04:38;2.33;;;2.10;;
5493;SDS011;2769;49.864;8.656;2023-05-14T15:07:28;2.13;;;2.03;;
5493;SDS011;2769;49.864;8.656;2023-05-14T15:10:20;6.10;;;2.70;;
5493;SDS011;2769;49.864;8.656;2023-05-14T15:13:08;2.27;;;2.17;;
5493;SDS011;2769;49.864;8.656;2023-05-14T15:15:57;2.23;;;2.13;;
5493;SDS011;2769;49.864;8.656;2023-05-14T15:18:45;2.70;;;2.50;;
5493;SDS011;2769;49.864;8.656;2023-05-14T15:21:33;2.60;;;2.33;;
5493;SDS011;2769;49.864;8.656;2023-05-14T15:24:22;2.07;;;1.97;;
5493;SDS011;2769;49.864;8.656;2023-05-14T15:27:13;2.30;;;2.20;;
5493;SDS011;2769;49.864;8.656;2023-05-14T15:30:01;2.40;;;2.30;;
5493;SDS011;2769;49.864;8.656;2023-05-14T15:32:50;2.73;;;2.10;;
5493;SDS011;2769;49.864;8.656;2023-05-14T15:35:39;2.30;;;2.20;;